createdAt,value
2023-01-12T00:00:23.982Z,34.08
2023-01-12T00:03:27.877Z,33.33
2023-01-12T00:06:35.034Z,33.33
2023-01-12T00:09:39.524Z,33.28
2023-01-12T00:12:42.381Z,33.83
2023-01-12T00:16:04.780Z,32.70
2023-01-12T00:19:11.641Z,33.17
2023-01-12T00:22:14.876Z,33.22
2023-01-12T00:25:17.723Z,34.35
2023-01-12T00:28:22.307Z,33.85
2023-01-12T00:31:25.246Z,33.80
2023-01-12T00:34:30.246Z,34.38
2023-01-12T00:37:34.432Z,35.03
2023-01-12T00:40:37.778Z,35.70
2023-01-12T00:43:59.503Z,39.03
2023-01-12T00:47:02.737Z,37.40
2023-01-12T00:50:08.903Z,34.38
2023-01-12T00:53:13.394Z,35.88
2023-01-12T00:56:16.239Z,35.47
2023-01-12T00:59:20.333Z,35.53
2023-01-12T01:02:23.786Z,38.08
2023-01-12T01:05:27.080Z,37.22
2023-01-12T01:08:30.217Z,33.35
2023-01-12T01:11:34.757Z,34.65
2023-01-12T01:14:37.517Z,34.05
2023-01-12T01:17:40.578Z,33.95
2023-01-12T01:20:48.498Z,32.20
2023-01-12T01:23:52.182Z,32.00
2023-01-12T01:26:55.083Z,31.42
2023-01-12T01:29:58.199Z,29.55
2023-01-12T01:33:00.923Z,29.87
2023-01-12T01:36:05.989Z,27.92
2023-01-12T01:39:09.038Z,27.70
2023-01-12T01:42:28.267Z,27.55
2023-01-12T01:45:31.245Z,27.77
2023-01-12T01:48:37.363Z,28.37
2023-01-12T01:51:41.514Z,26.50
2023-01-12T01:54:55.667Z,27.13
2023-01-12T01:58:02.775Z,27.48
2023-01-12T02:01:06.593Z,25.12
2023-01-12T02:04:10.548Z,24.97
2023-01-12T02:07:13.657Z,24.55
2023-01-12T02:10:17.670Z,24.20
2023-01-12T02:13:39.940Z,22.40
2023-01-12T02:17:20.995Z,23.02
2023-01-12T02:21:02.201Z,23.70
2023-01-12T02:24:21.168Z,23.27
2023-01-12T02:27:30.308Z,21.33
2023-01-12T02:30:58.617Z,20.75
2023-01-12T02:34:10.209Z,20.30
2023-01-12T02:37:34.634Z,21.60
2023-01-12T02:40:59.279Z,21.62
2023-01-12T02:44:03.599Z,21.55
2023-01-12T02:47:16.205Z,24.92
2023-01-12T02:50:38.405Z,23.52
2023-01-12T02:53:47.395Z,24.07
2023-01-12T02:56:54.136Z,23.33
2023-01-12T03:00:01.356Z,24.05
2023-01-12T03:03:05.795Z,25.25
2023-01-12T03:06:09.162Z,23.42
2023-01-12T03:09:14.482Z,25.70
2023-01-12T03:12:24.346Z,24.95
2023-01-12T03:15:29.005Z,24.20
2023-01-12T03:18:51.403Z,23.48
2023-01-12T03:21:59.052Z,23.55
2023-01-12T03:25:09.419Z,22.13
2023-01-12T03:28:16.193Z,20.80
2023-01-12T03:31:21.633Z,20.10
2023-01-12T03:34:24.392Z,20.60
2023-01-12T03:37:37.919Z,21.58
2023-01-12T03:40:59.934Z,21.73
2023-01-12T03:44:08.903Z,22.20
2023-01-12T03:47:24.851Z,22.83
2023-01-12T03:50:38.419Z,22.17
2023-01-12T03:53:43.131Z,22.60
2023-01-12T03:56:47.747Z,22.93
2023-01-12T03:59:50.307Z,22.20
2023-01-12T04:03:09.445Z,22.25
2023-01-12T04:06:12.506Z,23.12
2023-01-12T04:09:15.383Z,20.75
2023-01-12T04:12:18.766Z,21.27
2023-01-12T04:15:21.554Z,19.60
2023-01-12T04:18:24.921Z,18.98
2023-01-12T04:21:46.517Z,19.05
2023-01-12T04:24:49.329Z,17.80
2023-01-12T04:28:04.763Z,17.90
2023-01-12T04:31:09.701Z,17.10
2023-01-12T04:34:12.217Z,16.23
2023-01-12T04:37:15.494Z,14.90
2023-01-12T04:40:19.014Z,13.88
2023-01-12T04:43:22.290Z,12.20
2023-01-12T04:46:40.270Z,12.82
2023-01-12T04:49:43.288Z,12.70
2023-01-12T04:52:46.262Z,12.90
2023-01-12T04:55:56.176Z,13.10
2023-01-12T04:59:01.100Z,12.23
2023-01-12T05:02:04.180Z,12.60
2023-01-12T05:05:08.696Z,12.37
2023-01-12T05:08:31.637Z,13.55
2023-01-12T05:11:48.534Z,13.73
2023-01-12T05:14:52.022Z,12.40
2023-01-12T05:17:54.583Z,10.52
2023-01-12T05:20:57.781Z,11.38
2023-01-12T05:24:02.433Z,10.40
2023-01-12T05:27:05.698Z,11.12
2023-01-12T05:30:14.260Z,10.43
2023-01-12T05:33:25.187Z,11.18
2023-01-12T05:36:27.676Z,10.30
2023-01-12T05:39:30.882Z,10.50
2023-01-12T05:42:54.268Z,10.23
2023-01-12T05:45:57.166Z,10.07
2023-01-12T05:49:00.189Z,10.43
2023-01-12T05:52:03.274Z,10.05
2023-01-12T05:55:07.419Z,9.52
2023-01-12T05:58:12.162Z,9.45
2023-01-12T06:01:16.333Z,10.30
2023-01-12T06:04:19.383Z,9.80
2023-01-12T06:07:23.423Z,10.10
2023-01-12T06:10:27.138Z,9.73
2023-01-12T06:13:48.772Z,10.02
2023-01-12T06:16:53.247Z,10.00
2023-01-12T06:19:56.251Z,10.70
2023-01-12T06:23:07.864Z,11.52
2023-01-12T06:26:11.942Z,10.88
2023-01-12T06:29:15.433Z,9.90
2023-01-12T06:32:18.529Z,10.33
2023-01-12T06:35:22.429Z,10.65
2023-01-12T06:38:28.389Z,10.88
2023-01-12T06:41:52.726Z,10.80
2023-01-12T06:45:00.563Z,10.85
2023-01-12T06:48:03.631Z,10.93
2023-01-12T06:51:06.429Z,12.10
2023-01-12T06:54:09.534Z,12.30
2023-01-12T06:57:13.896Z,12.02
2023-01-12T07:00:17.967Z,12.27
2023-01-12T07:03:21.351Z,11.27
2023-01-12T07:06:24.964Z,12.97
2023-01-12T07:09:29.327Z,13.68
2023-01-12T07:12:32.310Z,13.57
2023-01-12T07:15:35.045Z,13.65
2023-01-12T07:18:38.611Z,12.90
2023-01-12T07:21:42.286Z,13.75
2023-01-12T07:24:45.535Z,15.82
2023-01-12T07:27:52.676Z,14.73
2023-01-12T07:31:00.769Z,14.52
2023-01-12T07:34:04.629Z,15.07
2023-01-12T07:37:11.379Z,16.20
2023-01-12T07:40:19.483Z,15.05
2023-01-12T07:43:23.665Z,15.48
2023-01-12T07:46:27.307Z,15.90
2023-01-12T07:49:30.291Z,15.07
2023-01-12T07:52:34.297Z,14.90
2023-01-12T07:55:43.634Z,14.00
2023-01-12T07:58:51.936Z,15.23
2023-01-12T08:01:59.526Z,14.95
2023-01-12T08:05:03.169Z,14.97
2023-01-12T08:08:07.274Z,14.67
2023-01-12T08:11:12.388Z,14.63
2023-01-12T08:14:27.534Z,15.35
2023-01-12T08:17:37.399Z,14.02
2023-01-12T08:20:43.611Z,13.17
2023-01-12T08:23:53.899Z,14.93
2023-01-12T08:27:00.050Z,13.38
2023-01-12T08:30:08.496Z,14.25
2023-01-12T08:33:13.067Z,13.65
2023-01-12T08:36:18.858Z,11.73
2023-01-12T08:39:29.618Z,12.20
2023-01-12T08:42:36.193Z,12.15
2023-01-12T08:45:39.439Z,10.98
2023-01-12T08:48:43.288Z,12.20
2023-01-12T08:51:49.336Z,13.63
2023-01-12T08:54:52.572Z,12.77
2023-01-12T08:57:57.673Z,13.90
2023-01-12T09:01:12.730Z,15.52
2023-01-12T09:04:15.819Z,13.68
2023-01-12T09:07:20.001Z,14.13
2023-01-12T09:10:25.471Z,14.57
2023-01-12T09:13:29.525Z,16.70
2023-01-12T09:16:34.603Z,14.93
2023-01-12T09:19:38.589Z,14.55
2023-01-12T09:22:41.513Z,15.20
2023-01-12T09:25:45.337Z,16.20
2023-01-12T09:28:48.999Z,14.50
2023-01-12T09:31:53.820Z,13.02
2023-01-12T09:34:59.808Z,13.65
2023-01-12T09:38:03.034Z,11.67
2023-01-12T09:41:57.292Z,11.70
2023-01-12T09:45:25.700Z,12.37
2023-01-12T09:48:30.939Z,11.93
2023-01-12T09:51:41.744Z,11.00
2023-01-12T09:54:49.672Z,11.57
2023-01-12T09:58:24.464Z,10.93
2023-01-12T10:01:30.397Z,13.85
2023-01-12T10:04:37.291Z,12.43
2023-01-12T10:07:42.147Z,10.77
2023-01-12T10:11:01.477Z,9.93
2023-01-12T10:14:15.082Z,10.50
2023-01-12T10:17:38.628Z,10.57
2023-01-12T10:20:46.672Z,11.30
2023-01-12T10:23:55.003Z,11.68
2023-01-12T10:27:03.599Z,12.47
2023-01-12T10:30:28.776Z,11.63
2023-01-12T10:33:34.452Z,11.05
2023-01-12T10:36:47.108Z,17.27
2023-01-12T10:39:52.326Z,21.05
2023-01-12T10:43:20.448Z,17.33
2023-01-12T10:46:26.991Z,35.23
2023-01-12T10:49:30.760Z,37.75
2023-01-12T10:52:40.015Z,19.40
2023-01-12T10:55:44.490Z,19.62
2023-01-12T10:59:10.834Z,14.60
2023-01-12T11:02:15.945Z,15.93
2023-01-12T11:05:38.658Z,20.17
2023-01-12T11:08:45.996Z,16.05
2023-01-12T11:12:02.357Z,15.25
2023-01-12T11:15:13.199Z,11.47
2023-01-12T11:18:36.293Z,12.80
2023-01-12T11:21:42.941Z,12.45
2023-01-12T11:24:57.223Z,10.77
2023-01-12T11:28:25.269Z,10.48
2023-01-12T11:31:32.503Z,10.10
2023-01-12T11:34:41.581Z,9.87
2023-01-12T11:37:48.732Z,11.15
2023-01-12T11:40:56.245Z,11.12
2023-01-12T11:44:21.414Z,10.70
2023-01-12T11:47:54.117Z,11.97
2023-01-12T11:51:00.654Z,11.50
2023-01-12T11:54:09.710Z,11.73
2023-01-12T11:57:22.157Z,13.18
2023-01-12T12:00:38.820Z,12.10
2023-01-12T12:03:51.403Z,12.63
2023-01-12T12:07:20.182Z,14.47
2023-01-12T12:10:49.334Z,12.90
2023-01-12T12:14:21.484Z,13.15
2023-01-12T12:17:32.203Z,13.88
2023-01-12T12:20:43.662Z,14.03
2023-01-12T12:24:02.250Z,12.73
2023-01-12T12:27:19.164Z,22.67
2023-01-12T12:30:37.964Z,13.77
2023-01-12T12:33:54.221Z,12.98
2023-01-12T12:37:29.823Z,13.93
2023-01-12T12:40:55.898Z,13.17
2023-01-12T12:44:54.866Z,14.10
2023-01-12T12:48:25.216Z,14.32
2023-01-12T12:51:32.614Z,13.68
2023-01-12T12:54:40.544Z,13.33
2023-01-12T12:58:28.226Z,13.10
2023-01-12T13:01:42.672Z,12.88
2023-01-12T13:04:46.422Z,12.88
2023-01-12T13:07:55.309Z,13.38
2023-01-12T13:11:00.536Z,12.53
2023-01-12T13:14:07.528Z,12.77
2023-01-12T13:17:24.721Z,12.63
2023-01-12T13:20:52.104Z,12.43
2023-01-12T13:24:19.143Z,12.80
2023-01-12T13:27:52.546Z,13.63
2023-01-12T13:30:56.197Z,13.07
2023-01-12T13:34:32.007Z,13.07
2023-01-12T13:37:45.277Z,14.20
2023-01-12T13:41:14.268Z,14.10
2023-01-12T13:44:28.725Z,14.00
2023-01-12T13:47:44.517Z,13.77
2023-01-12T13:50:59.921Z,12.90
2023-01-12T13:54:15.222Z,12.30
2023-01-12T13:57:24.486Z,12.90
2023-01-12T14:00:35.919Z,14.80
2023-01-12T14:04:04.180Z,13.17
2023-01-12T14:07:12.207Z,13.38
2023-01-12T14:10:40.173Z,13.10
2023-01-12T14:14:42.420Z,13.10
2023-01-12T14:17:53.412Z,13.73
2023-01-12T14:21:00.021Z,13.97
2023-01-12T14:24:17.232Z,15.77
2023-01-12T14:27:27.474Z,16.37
2023-01-12T14:30:36.588Z,20.50
2023-01-12T14:33:42.182Z,22.23
2023-01-12T14:36:50.202Z,20.73
2023-01-12T14:39:59.025Z,19.05
2023-01-12T14:43:37.211Z,18.25
2023-01-12T14:46:53.482Z,18.20
2023-01-12T14:50:17.585Z,16.27
2023-01-12T14:53:41.133Z,16.00
2023-01-12T14:56:56.794Z,20.25
2023-01-12T15:00:10.082Z,20.08
2023-01-12T15:03:35.293Z,16.80
2023-01-12T15:06:45.351Z,16.53
2023-01-12T15:09:59.251Z,16.10
2023-01-12T15:13:26.336Z,16.60
2023-01-12T15:16:53.223Z,17.92
2023-01-12T15:20:20.166Z,16.92
2023-01-12T15:23:52.200Z,19.87
2023-01-12T15:27:05.811Z,19.33
2023-01-12T15:30:20.233Z,19.37
2023-01-12T15:33:25.203Z,19.92
2023-01-12T15:36:30.247Z,19.60
2023-01-12T15:39:35.231Z,21.43
2023-01-12T15:42:45.836Z,20.67
2023-01-12T15:45:50.222Z,20.33
2023-01-12T15:48:54.965Z,20.00
2023-01-12T15:52:00.542Z,21.65
2023-01-12T15:55:05.566Z,26.27
2023-01-12T15:58:14.522Z,40.63
2023-01-12T16:01:21.483Z,39.80
2023-01-12T16:04:43.480Z,42.67
2023-01-12T16:07:49.131Z,38.05
2023-01-12T16:11:14.179Z,35.77
2023-01-12T16:14:22.244Z,36.93
2023-01-12T16:17:27.579Z,36.50
2023-01-12T16:20:47.118Z,37.05
2023-01-12T16:23:58.182Z,33.97
2023-01-12T16:27:02.144Z,43.00
2023-01-12T16:30:16.210Z,46.87
2023-01-12T16:33:22.587Z,43.38
2023-01-12T16:36:36.293Z,40.60
2023-01-12T16:39:53.215Z,37.15
2023-01-12T16:42:59.148Z,39.43
2023-01-12T16:46:04.256Z,37.87
2023-01-12T16:49:10.929Z,38.95
2023-01-12T16:52:21.222Z,40.03
2023-01-12T16:55:30.247Z,38.67
2023-01-12T16:58:33.008Z,38.77
2023-01-12T17:01:40.611Z,43.90
2023-01-12T17:04:52.562Z,48.45
2023-01-12T17:08:17.072Z,51.00
2023-01-12T17:11:22.168Z,44.25
2023-01-12T17:14:28.343Z,41.03
2023-01-12T17:17:39.078Z,46.53
2023-01-12T17:20:53.154Z,40.88
2023-01-12T17:23:58.164Z,39.50
2023-01-12T17:27:01.606Z,36.65
2023-01-12T17:30:09.189Z,34.50
2023-01-12T17:33:24.263Z,31.63
2023-01-12T17:37:43.232Z,31.58
2023-01-12T17:40:53.327Z,36.83
2023-01-12T17:44:07.223Z,37.78
2023-01-12T17:47:14.120Z,39.10
2023-01-12T17:50:21.553Z,42.03
2023-01-12T17:53:29.637Z,38.92
2023-01-12T17:56:36.438Z,28.90
2023-01-12T17:59:41.957Z,31.73
2023-01-12T18:02:48.167Z,31.77
2023-01-12T18:06:04.878Z,29.08
2023-01-12T18:09:13.974Z,28.92
2023-01-12T18:12:26.074Z,29.60
2023-01-12T18:15:48.097Z,31.50
2023-01-12T18:18:56.298Z,30.77
2023-01-12T18:22:06.085Z,30.75
2023-01-12T18:25:12.149Z,31.05
2023-01-12T18:28:16.160Z,33.33
2023-01-12T18:31:27.224Z,33.90
2023-01-12T18:34:32.467Z,32.90
2023-01-12T18:37:39.223Z,32.25
2023-01-12T18:41:03.500Z,35.85
2023-01-12T18:44:11.371Z,32.90
2023-01-12T18:47:39.145Z,33.28
2023-01-12T18:51:05.090Z,33.43
2023-01-12T18:54:12.386Z,32.35
2023-01-12T18:57:19.994Z,33.40
2023-01-12T19:00:29.260Z,32.78
2023-01-12T19:03:37.485Z,32.47
2023-01-12T19:06:47.379Z,32.50
2023-01-12T19:09:51.592Z,31.90
2023-01-12T19:13:14.629Z,32.40
2023-01-12T19:16:36.915Z,31.30
2023-01-12T19:19:49.227Z,32.70
2023-01-12T19:23:16.171Z,33.60
2023-01-12T19:26:40.490Z,35.15
2023-01-12T19:29:44.978Z,37.83
2023-01-12T19:32:53.309Z,38.30
2023-01-12T19:36:10.536Z,39.28
2023-01-12T19:39:17.093Z,43.73
2023-01-12T19:42:40.330Z,45.72
2023-01-12T19:45:59.110Z,44.80
2023-01-12T19:49:16.864Z,41.22
2023-01-12T19:52:23.681Z,44.80
2023-01-12T19:55:42.436Z,47.80
2023-01-12T19:58:52.787Z,47.83
2023-01-12T20:02:01.502Z,48.92
2023-01-12T20:05:12.441Z,53.17
2023-01-12T20:08:27.177Z,53.45
2023-01-12T20:11:41.096Z,50.47
2023-01-12T20:14:47.579Z,48.87
2023-01-12T20:18:01.173Z,48.42
2023-01-12T20:21:16.155Z,42.42
2023-01-12T20:24:23.155Z,41.63
2023-01-12T20:27:35.866Z,40.00
2023-01-12T20:30:46.165Z,38.75
2023-01-12T20:33:58.135Z,37.90
2023-01-12T20:37:02.781Z,38.78
2023-01-12T20:40:20.220Z,33.77
2023-01-12T20:43:28.102Z,33.30
2023-01-12T20:46:32.956Z,32.13
2023-01-12T20:49:47.283Z,35.03
2023-01-12T20:52:52.691Z,33.28
2023-01-12T20:55:57.612Z,32.60
2023-01-12T20:59:02.212Z,35.75
2023-01-12T21:02:20.258Z,36.10
2023-01-12T21:05:31.068Z,36.55
2023-01-12T21:08:40.701Z,33.67
2023-01-12T21:11:49.146Z,32.97
2023-01-12T21:14:52.059Z,33.92
2023-01-12T21:17:55.826Z,34.10
2023-01-12T21:20:59.823Z,33.80
2023-01-12T21:24:07.320Z,36.53
2023-01-12T21:27:12.399Z,32.58
2023-01-12T21:30:20.362Z,33.88
2023-01-12T21:33:23.579Z,34.65
2023-01-12T21:36:29.864Z,34.90
2023-01-12T21:39:33.516Z,34.08
2023-01-12T21:42:57.128Z,33.78
2023-01-12T21:46:06.545Z,38.45
2023-01-12T21:49:10.829Z,35.33
2023-01-12T21:52:13.924Z,40.70
2023-01-12T21:55:19.484Z,37.75
2023-01-12T21:58:25.068Z,39.22
2023-01-12T22:01:29.509Z,35.13
2023-01-12T22:04:35.833Z,36.50
2023-01-12T22:07:39.010Z,35.90
2023-01-12T22:10:45.926Z,35.47
2023-01-12T22:13:55.964Z,30.92
2023-01-12T22:16:59.895Z,32.00
2023-01-12T22:20:03.914Z,32.53
2023-01-12T22:23:12.720Z,31.37
2023-01-12T22:26:17.204Z,29.75
2023-01-12T22:29:21.009Z,29.10
2023-01-12T22:32:29.366Z,28.45
2023-01-12T22:35:34.183Z,29.00
2023-01-12T22:38:39.129Z,28.87
2023-01-12T22:41:42.298Z,25.70
2023-01-12T22:44:48.055Z,25.23
2023-01-12T22:47:56.335Z,28.10
2023-01-12T22:51:00.452Z,28.05
2023-01-12T22:54:08.148Z,29.67
2023-01-12T22:57:13.215Z,28.98
2023-01-12T23:00:17.961Z,27.33
2023-01-12T23:03:22.090Z,27.90
2023-01-12T23:06:26.616Z,26.12
2023-01-12T23:09:29.477Z,24.95
2023-01-12T23:12:34.043Z,25.80
2023-01-12T23:15:44.462Z,26.25
2023-01-12T23:18:51.715Z,26.62
2023-01-12T23:21:57.238Z,23.62
2023-01-12T23:25:01.355Z,22.17
2023-01-12T23:28:05.937Z,23.95
2023-01-12T23:31:16.019Z,23.15
2023-01-12T23:34:18.904Z,22.67
2023-01-12T23:37:23.382Z,21.50
2023-01-12T23:40:28.118Z,20.98
2023-01-12T23:43:34.042Z,20.02
2023-01-12T23:46:39.331Z,20.55
2023-01-12T23:49:43.026Z,22.27
2023-01-12T23:52:48.913Z,19.27
2023-01-12T23:55:52.681Z,20.05
2023-01-12T23:58:56.202Z,21.20
